Time;durP1;ratioP1;P1;durP2;ratioP2;P2;SDS_P1;SDS_P2;PMS_P1;PMS_P2;Temp;Humidity;BMP_temperature;BMP_pressure;BME280_temperature;BME280_humidity;BME280_pressure;Samples;Min_cycle;Max_cycle;Signal;HPM_P1;HPM_P2
2022/03/21 00:01:56;;;;;;;32.20;16.77;;;4.50;52.50;;;;;;5081977;28;20506;-59
2022/03/21 00:04:22;;;;;;;31.33;16.67;;;4.50;52.50;;;;;;5080711;28;20173;-60
2022/03/21 00:06:48;;;;;;;26.20;15.37;;;4.40;52.40;;;;;;5093779;28;20538;-60
2022/03/21 00:09:14;;;;;;;27.93;15.73;;;4.40;52.60;;;;;;5088426;28;20539;-60
2022/03/21 00:11:40;;;;;;;31.00;15.43;;;4.40;52.70;;;;;;5082712;28;20173;-60
2022/03/21 00:14:06;;;;;;;34.90;16.93;;;4.30;52.70;;;;;;5089784;28;20415;-60
2022/03/21 00:16:32;;;;;;;29.27;15.73;;;4.30;52.70;;;;;;5089160;28;20186;-60
2022/03/21 00:18:58;;;;;;;28.93;16.63;;;4.30;52.80;;;;;;5078153;28;20766;-59
2022/03/21 00:21:24;;;;;;;27.00;15.90;;;4.20;52.80;;;;;;5091206;28;20197;-60
2022/03/21 00:23:49;;;;;;;26.27;14.70;;;4.20;52.90;;;;;;5100464;28;21014;-60
2022/03/21 00:26:15;;;;;;;28.77;15.37;;;4.20;53.20;;;;;;5081769;28;20185;-60
2022/03/21 00:28:41;;;;;;;30.13;15.17;;;4.20;53.30;;;;;;5085921;28;20177;-60
2022/03/21 00:31:16;;;;;;;26.70;15.67;;;4.10;53.10;;;;;;5076882;28;20205;-60
2022/03/21 00:33:42;;;;;;;29.10;15.97;;;4.10;53.20;;;;;;5078474;28;20456;-60
2022/03/21 00:36:08;;;;;;;34.53;15.60;;;4.00;53.20;;;;;;5078930;28;20448;-59
2022/03/21 00:38:37;;;;;;;32.17;15.70;;;4.00;54.00;;;;;;5086042;28;20427;-60
2022/03/21 00:41:04;;;;;;;33.83;16.67;;;3.90;53.50;;;;;;5085765;28;21032;-60
2022/03/21 00:43:30;;;;;;;32.40;16.87;;;3.90;53.50;;;;;;5080554;28;20436;-60
2022/03/21 00:45:57;;;;;;;30.70;17.17;;;3.80;53.60;;;;;;5077959;28;20443;-60
2022/03/21 00:48:24;;;;;;;30.07;17.60;;;3.80;53.70;;;;;;5084950;28;20424;-61
2022/03/21 00:50:51;;;;;;;30.20;16.73;;;3.70;53.70;;;;;;5078997;28;20452;-60
2022/03/21 00:53:17;;;;;;;32.33;16.13;;;3.70;53.90;;;;;;5086867;28;20450;-60
2022/03/21 00:55:43;;;;;;;31.30;17.00;;;3.70;54.00;;;;;;5077793;28;20439;-60
2022/03/21 00:58:09;;;;;;;28.63;16.27;;;3.60;54.00;;;;;;5083175;28;21152;-61
2022/03/21 01:00:35;;;;;;;34.07;15.63;;;3.60;54.10;;;;;;5089504;28;20422;-60
2022/03/21 01:03:02;;;;;;;28.93;16.20;;;3.60;54.20;;;;;;5090204;28;20957;-60
2022/03/21 01:05:29;;;;;;;28.63;15.37;;;3.60;54.30;;;;;;5079725;28;20173;-60
2022/03/21 01:07:55;;;;;;;35.77;16.73;;;3.50;54.40;;;;;;5088332;28;20965;-60
2022/03/21 01:10:22;;;;;;;28.83;16.93;;;3.50;54.50;;;;;;5088024;28;20539;-60
2022/03/21 01:12:49;;;;;;;32.27;17.57;;;3.50;54.50;;;;;;5089153;28;20445;-59
2022/03/21 01:15:20;;;;;;;25.53;15.27;;;3.50;54.50;;;;;;5089712;28;20404;-60
2022/03/21 01:17:46;;;;;;;30.83;15.23;;;3.50;54.60;;;;;;5088528;28;20451;-59
2022/03/21 01:20:14;;;;;;;34.20;16.60;;;3.40;54.50;;;;;;5087819;28;20957;-60
2022/03/21 01:22:40;;;;;;;30.83;15.67;;;3.40;54.60;;;;;;5088221;28;20467;-60
2022/03/21 01:25:06;;;;;;;30.73;16.93;;;3.40;54.80;;;;;;5087449;28;20439;-59
2022/03/21 01:27:34;;;;;;;30.57;16.53;;;3.40;54.80;;;;;;5089936;28;20454;-61
2022/03/21 01:30:04;;;;;;;31.13;17.17;;;3.30;54.80;;;;;;5088505;28;20548;-59
2022/03/21 01:32:29;;;;;;;33.67;17.03;;;3.30;55.30;;;;;;5082057;28;20423;-60
2022/03/21 01:34:55;;;;;;;33.30;16.73;;;3.30;54.90;;;;;;5085135;28;20438;-59
2022/03/21 01:37:21;;;;;;;29.13;17.60;;;3.30;55.00;;;;;;5085961;28;20290;-60
2022/03/21 01:39:47;;;;;;;31.10;16.97;;;3.20;54.90;;;;;;5078361;28;20191;-59
2022/03/21 01:42:12;;;;;;;29.10;16.77;;;3.10;54.80;;;;;;5085169;28;20178;-60
2022/03/21 01:44:38;;;;;;;30.80;17.50;;;3.10;55.10;;;;;;5081149;28;20186;-59
2022/03/21 01:47:04;;;;;;;35.00;16.40;;;3.10;55.20;;;;;;5082453;28;20200;-60
2022/03/21 01:49:30;;;;;;;32.37;16.97;;;3.00;55.20;;;;;;5078013;28;20681;-59
2022/03/21 01:51:55;;;;;;;30.60;17.00;;;3.00;55.40;;;;;;5078793;28;20427;-59
2022/03/21 01:57:06;;;;;;;28.80;16.03;;;2.90;55.50;;;;;;5072773;28;20269;-60
2022/03/21 01:59:33;;;;;;;27.63;16.40;;;2.90;55.70;;;;;;5081690;28;20426;-59
2022/03/21 02:01:59;;;;;;;29.17;15.70;;;2.80;55.90;;;;;;5088509;28;20423;-59
2022/03/21 02:04:25;;;;;;;28.70;16.30;;;2.80;55.90;;;;;;5092501;28;20481;-59
2022/03/21 02:06:50;;;;;;;27.70;15.90;;;2.70;55.90;;;;;;5086923;28;20192;-59
2022/03/21 02:09:16;;;;;;;28.50;16.50;;;2.70;56.20;;;;;;5096182;28;20169;-59
2022/03/21 02:11:42;;;;;;;36.63;17.67;;;2.60;56.30;;;;;;5083014;28;20649;-59
2022/03/21 02:14:10;;;;;;;32.53;15.90;;;2.60;56.40;;;;;;5098369;28;20394;-59
2022/03/21 02:16:37;;;;;;;26.97;14.33;;;2.60;56.50;;;;;;5093053;28;20194;-59
2022/03/21 02:19:31;;;;;;;26.37;15.37;;;2.60;56.70;;;;;;5092267;28;20457;-59
2022/03/21 02:22:15;;;;;;;27.17;16.20;;;2.50;57.00;;;;;;5087221;28;20435;-59
2022/03/21 02:24:46;;;;;;;30.13;15.10;;;2.50;57.10;;;;;;5092457;28;20920;-59
2022/03/21 02:27:14;;;;;;;33.00;15.70;;;2.40;57.00;;;;;;5089709;28;20473;-59
2022/03/21 02:29:42;;;;;;;27.30;16.17;;;2.40;57.00;;;;;;5086845;28;20440;-59
2022/03/21 02:32:08;;;;;;;27.07;15.57;;;2.40;57.10;;;;;;5089720;28;20414;-59
2022/03/21 02:34:38;;;;;;;25.50;14.73;;;2.40;57.40;;;;;;5083270;28;20494;-60
2022/03/21 02:37:06;;;;;;;26.37;14.77;;;2.40;57.60;;;;;;5077889;28;20581;-59
2022/03/21 02:39:34;;;;;;;27.43;14.57;;;2.40;57.70;;;;;;5083864;28;20470;-59
2022/03/21 02:42:01;;;;;;;26.77;14.97;;;2.40;57.70;;;;;;5090633;28;21234;-59
2022/03/21 02:44:41;;;;;;;32.33;16.63;;;2.40;57.80;;;;;;5086163;28;20436;-59
2022/03/21 02:47:08;;;;;;;33.13;16.00;;;2.30;57.90;;;;;;5096641;28;20457;-59
2022/03/21 02:49:35;;;;;;;33.70;16.30;;;2.30;58.00;;;;;;5090849;28;20458;-59
2022/03/21 02:52:04;;;;;;;29.60;15.87;;;2.30;58.00;;;;;;5085528;28;20458;-60
2022/03/21 02:54:30;;;;;;;27.50;15.20;;;2.20;58.10;;;;;;5090137;28;20531;-59
2022/03/21 02:56:57;;;;;;;35.23;15.20;;;2.20;58.20;;;;;;5090524;28;20470;-59
2022/03/21 02:59:22;;;;;;;26.43;14.50;;;2.20;58.40;;;;;;5091774;28;21039;-59
2022/03/21 03:01:53;;;;;;;35.60;15.63;;;2.20;58.60;;;;;;5095602;28;20426;-59
2022/03/21 03:04:20;;;;;;;31.70;16.47;;;2.10;58.60;;;;;;5092516;28;20230;-59
2022/03/21 03:06:45;;;;;;;33.03;17.20;;;2.10;59.00;;;;;;5089248;28;20444;-59
2022/03/21 03:09:11;;;;;;;27.70;15.30;;;2.10;59.30;;;;;;5091193;28;20446;-59
2022/03/21 03:11:37;;;;;;;30.70;17.20;;;2.10;59.60;;;;;;5090841;28;20180;-59
2022/03/21 03:14:04;;;;;;;30.53;16.33;;;2.10;59.70;;;;;;5091489;28;20237;-59
2022/03/21 03:16:30;;;;;;;28.77;15.47;;;2.10;59.80;;;;;;5083607;28;20486;-60
2022/03/21 03:18:55;;;;;;;29.53;15.83;;;2.00;59.90;;;;;;5084955;28;20456;-60
2022/03/21 03:21:24;;;;;;;30.27;16.13;;;2.10;60.10;;;;;;5088175;28;20178;-60
2022/03/21 03:23:51;;;;;;;26.40;14.67;;;2.10;60.30;;;;;;5082752;28;20631;-60
2022/03/21 03:26:17;;;;;;;25.53;15.20;;;2.00;61.00;;;;;;5086677;28;20449;-59
2022/03/21 03:28:43;;;;;;;27.00;14.87;;;2.00;60.50;;;;;;5091788;28;20423;-60
2022/03/21 03:31:09;;;;;;;30.77;16.73;;;2.00;60.70;;;;;;5092533;28;20455;-60
2022/03/21 03:33:36;;;;;;;28.90;15.10;;;2.00;61.20;;;;;;5097938;28;20434;-59
2022/03/21 03:36:02;;;;;;;27.10;14.57;;;2.00;61.30;;;;;;5079903;28;20823;-60
2022/03/21 03:38:27;;;;;;;35.03;15.63;;;2.00;61.50;;;;;;5089601;28;20423;-59
2022/03/21 03:40:54;;;;;;;29.87;15.93;;;1.90;61.20;;;;;;5085139;28;20444;-59
2022/03/21 03:43:20;;;;;;;29.73;14.60;;;2.00;61.10;;;;;;5090277;28;20812;-59
2022/03/21 03:45:49;;;;;;;29.13;16.50;;;1.90;61.30;;;;;;5085255;28;20514;-59
2022/03/21 03:48:15;;;;;;;33.90;16.63;;;1.90;62.10;;;;;;5083563;28;20428;-59
2022/03/21 03:50:41;;;;;;;30.13;15.73;;;1.90;61.60;;;;;;5086289;28;20485;-60
2022/03/21 03:53:07;;;;;;;31.80;15.50;;;1.90;61.70;;;;;;5072996;28;20262;-59
2022/03/21 03:55:33;;;;;;;34.07;16.17;;;1.80;61.70;;;;;;5083805;28;20485;-58
2022/03/21 03:57:59;;;;;;;34.33;15.90;;;1.80;61.90;;;;;;5088138;28;20455;-59
2022/03/21 04:00:24;;;;;;;31.93;16.40;;;1.80;62.10;;;;;;5085784;28;20286;-59
2022/03/21 04:05:35;;;;;;;28.30;15.07;;;1.70;63.20;;;;;;5079562;28;20212;-59
2022/03/21 04:08:01;;;;;;;30.30;16.20;;;1.70;63.50;;;;;;5085496;28;20539;-59
2022/03/21 04:10:26;;;;;;;28.63;14.73;;;1.70;63.70;;;;;;5101845;28;21183;-60
2022/03/21 04:12:52;;;;;;;29.00;16.03;;;1.70;63.90;;;;;;5101026;28;20192;-59
2022/03/21 04:15:19;;;;;;;28.47;14.83;;;1.70;64.10;;;;;;5100137;28;20168;-59
2022/03/21 04:17:45;;;;;;;29.30;15.90;;;1.70;64.20;;;;;;5079754;28;20193;-59
2022/03/21 04:20:11;;;;;;;29.50;16.53;;;1.70;64.10;;;;;;5087022;28;21226;-60
2022/03/21 04:22:38;;;;;;;28.70;15.10;;;1.70;64.30;;;;;;5090422;28;20434;-59
2022/03/21 04:25:06;;;;;;;38.03;16.20;;;1.70;64.90;;;;;;5082599;28;20429;-59
2022/03/21 04:27:32;;;;;;;29.50;15.50;;;1.70;65.40;;;;;;5080717;28;20584;-59
2022/03/21 04:29:59;;;;;;;32.50;15.27;;;1.70;65.70;;;;;;5085732;28;20454;-59
2022/03/21 04:32:25;;;;;;;25.73;14.70;;;1.70;66.00;;;;;;5094722;28;20431;-59
2022/03/21 04:34:50;;;;;;;31.60;15.30;;;1.70;66.00;;;;;;5087466;28;20842;-59
2022/03/21 04:37:16;;;;;;;27.20;15.10;;;1.70;65.80;;;;;;5094137;28;20696;-60
2022/03/21 04:39:41;;;;;;;27.50;16.43;;;1.70;65.60;;;;;;5085857;28;20186;-58
2022/03/21 04:42:07;;;;;;;27.97;15.17;;;1.60;65.20;;;;;;5086456;28;20174;-58
2022/03/21 04:44:33;;;;;;;36.63;16.33;;;1.60;65.10;;;;;;5099699;28;20625;-59
2022/03/21 04:46:59;;;;;;;32.90;15.97;;;1.50;65.00;;;;;;5088708;28;20198;-58
2022/03/21 04:49:24;;;;;;;31.50;16.67;;;1.60;65.10;;;;;;5078375;28;20201;-59
2022/03/21 04:51:50;;;;;;;29.87;16.37;;;1.50;65.20;;;;;;5076558;28;20174;-59
2022/03/21 04:54:16;;;;;;;29.77;15.13;;;1.40;66.60;;;;;;5078304;28;20171;-57
2022/03/21 04:56:42;;;;;;;28.33;15.40;;;1.40;66.10;;;;;;5082591;28;20651;-58
2022/03/21 04:59:09;;;;;;;30.33;16.60;;;1.40;66.30;;;;;;5078642;28;20444;-58
2022/03/21 05:01:35;;;;;;;27.03;15.73;;;1.30;66.80;;;;;;5079979;28;21057;-60
2022/03/21 05:04:01;;;;;;;35.40;17.00;;;1.40;67.40;;;;;;5078094;28;20927;-59
2022/03/21 05:06:27;;;;;;;30.00;16.50;;;1.30;67.20;;;;;;5084228;28;20459;-59
2022/03/21 05:08:52;;;;;;;29.23;14.90;;;1.30;67.50;;;;;;5077070;28;20184;-58
2022/03/21 05:11:18;;;;;;;34.67;16.37;;;1.20;67.50;;;;;;5074219;28;20206;-59
2022/03/21 05:13:44;;;;;;;28.03;15.83;;;1.20;67.70;;;;;;5077448;28;21428;-58
2022/03/21 05:16:09;;;;;;;32.87;16.83;;;1.20;68.30;;;;;;5076446;28;20204;-59
2022/03/21 05:18:35;;;;;;;26.93;16.10;;;1.20;69.60;;;;;;5072823;28;20258;-59
2022/03/21 05:21:02;;;;;;;27.87;15.40;;;1.20;69.90;;;;;;5095190;28;22062;-60
2022/03/21 05:31:40;;;;;;;37.60;16.80;;;1.20;70.90;;;;;;5075671;28;20440;-59
2022/03/21 05:36:50;;;;;;;32.10;17.30;;;1.20;71.10;;;;;;5069884;28;20248;-59
2022/03/21 05:39:17;;;;;;;30.67;17.07;;;1.20;71.30;;;;;;5072051;28;22479;-61
2022/03/21 05:41:42;;;;;;;30.27;16.07;;;1.20;70.60;;;;;;5071429;28;20195;-60
2022/03/21 05:44:11;;;;;;;33.77;17.27;;;1.20;70.60;;;;;;5078342;28;20419;-59
2022/03/21 05:46:37;;;;;;;31.10;17.23;;;1.20;70.60;;;;;;5074709;28;20200;-60
2022/03/21 05:49:03;;;;;;;41.97;18.20;;;1.20;71.10;;;;;;5076496;28;20542;-60
2022/03/21 05:51:31;;;;;;;36.33;17.50;;;1.20;71.60;;;;;;5075199;28;20847;-61
2022/03/21 05:53:58;;;;;;;35.43;17.40;;;1.10;70.90;;;;;;5073909;28;20440;-60
2022/03/21 05:56:27;;;;;;;34.97;18.17;;;1.10;71.50;;;;;;5077428;28;20466;-59
2022/03/21 05:58:53;;;;;;;34.17;17.07;;;1.10;72.50;;;;;;5076517;28;20470;-59
2022/03/21 06:01:22;;;;;;;36.70;18.17;;;1.10;73.30;;;;;;5076580;28;21080;-59
2022/03/21 06:03:54;;;;;;;29.87;16.80;;;1.10;73.20;;;;;;5081235;28;21231;-59
2022/03/21 06:06:21;;;;;;;40.27;17.27;;;1.10;73.40;;;;;;5080016;28;21117;-60
2022/03/21 06:08:48;;;;;;;34.40;15.87;;;1.10;73.80;;;;;;5083434;28;20405;-60
2022/03/21 06:11:14;;;;;;;28.90;15.77;;;1.10;73.70;;;;;;5079422;28;20453;-60
2022/03/21 06:13:42;;;;;;;29.93;16.20;;;1.20;75.00;;;;;;5080450;28;20434;-60
2022/03/21 06:16:08;;;;;;;32.60;16.57;;;1.20;75.50;;;;;;5083441;28;20210;-60
2022/03/21 06:18:35;;;;;;;35.00;16.10;;;1.20;75.80;;;;;;5082471;28;20627;-59
2022/03/21 06:21:02;;;;;;;33.53;17.13;;;1.30;75.60;;;;;;5083669;28;20177;-61
2022/03/21 06:23:28;;;;;;;33.60;16.30;;;1.40;76.40;;;;;;5083116;28;21195;-60
2022/03/21 06:25:54;;;;;;;28.60;15.50;;;1.40;76.00;;;;;;5080775;28;20423;-59
2022/03/21 06:28:21;;;;;;;30.10;15.57;;;1.50;75.40;;;;;;5082698;28;20184;-60
2022/03/21 06:30:50;;;;;;;28.33;16.03;;;1.60;75.00;;;;;;5082504;28;20443;-60
2022/03/21 06:33:16;;;;;;;32.00;15.70;;;1.70;74.40;;;;;;5103431;22;20994;-54
2022/03/21 06:35:42;;;;;;;30.50;16.07;;;1.70;73.50;;;;;;5076404;28;20427;-53
2022/03/21 06:38:10;;;;;;;33.70;17.07;;;1.80;72.60;;;;;;5079134;28;20421;-55
2022/03/21 06:40:36;;;;;;;28.03;16.57;;;1.90;72.50;;;;;;5079121;28;20684;-56
2022/03/21 06:43:02;;;;;;;35.13;17.47;;;2.00;72.30;;;;;;5069824;28;20440;-55
2022/03/21 06:45:28;;;;;;;39.50;21.43;;;2.00;70.80;;;;;;5061785;28;21760;-54
2022/03/21 06:47:54;;;;;;;37.90;18.50;;;2.10;70.50;;;;;;5059643;28;20420;-55
2022/03/21 06:50:20;;;;;;;37.70;17.40;;;2.20;69.70;;;;;;5059604;28;21004;-55
2022/03/21 06:52:45;;;;;;;33.10;16.73;;;2.30;69.30;;;;;;5061792;28;20537;-55
2022/03/21 06:55:12;;;;;;;35.63;16.33;;;2.30;69.10;;;;;;5064060;28;20258;-55
2022/03/21 06:57:39;;;;;;;32.53;17.40;;;2.40;68.70;;;;;;5066280;28;20173;-55
2022/03/21 07:00:06;;;;;;;32.80;16.60;;;2.40;68.40;;;;;;5061922;28;20434;-54
2022/03/21 07:02:33;;;;;;;27.20;15.80;;;2.50;68.90;;;;;;5062917;28;20498;-57
2022/03/21 07:04:58;;;;;;;33.00;16.93;;;2.50;68.30;;;;;;5064277;28;20462;-55
2022/03/21 07:07:25;;;;;;;32.70;16.40;;;2.60;68.40;;;;;;5062836;28;20427;-57
2022/03/21 07:09:51;;;;;;;30.90;16.43;;;2.60;68.70;;;;;;5063640;28;20211;-55
2022/03/21 07:12:18;;;;;;;33.30;18.37;;;2.70;68.60;;;;;;5064499;28;20923;-56
2022/03/21 07:14:45;;;;;;;41.33;16.40;;;2.70;69.00;;;;;;5063820;28;20261;-54
2022/03/21 07:17:10;;;;;;;28.37;15.93;;;2.80;68.80;;;;;;5064140;28;20439;-56
2022/03/21 07:19:37;;;;;;;35.07;16.37;;;2.80;69.70;;;;;;5064534;28;20437;-55
2022/03/21 07:22:03;;;;;;;35.17;17.13;;;2.90;70.00;;;;;;5062617;28;20470;-56
2022/03/21 07:24:29;;;;;;;29.53;15.23;;;3.00;70.70;;;;;;5067605;28;20750;-54
2022/03/21 07:26:55;;;;;;;33.83;17.03;;;3.10;70.60;;;;;;5068906;28;20436;-52
2022/03/21 07:29:22;;;;;;;32.17;17.03;;;3.20;70.10;;;;;;5059226;28;20178;-53
2022/03/21 07:31:47;;;;;;;34.57;16.20;;;3.20;68.50;;;;;;5074896;28;20525;-55
2022/03/21 07:34:14;;;;;;;34.90;16.70;;;3.30;67.10;;;;;;5075350;28;20466;-55
2022/03/21 07:36:40;;;;;;;35.00;16.57;;;3.40;66.60;;;;;;5070193;28;20629;-54
2022/03/21 07:39:05;;;;;;;33.63;17.43;;;3.50;66.40;;;;;;5070645;28;20529;-58
2022/03/21 07:41:31;;;;;;;27.97;15.47;;;3.60;65.90;;;;;;5087595;28;20197;-55
2022/03/21 07:43:58;;;;;;;28.00;15.77;;;3.60;66.70;;;;;;5064991;28;20323;-54
2022/03/21 07:49:10;;;;;;;26.77;15.80;;;3.80;65.30;;;;;;5064594;28;20550;-56
2022/03/21 07:51:36;;;;;;;31.83;17.63;;;4.00;64.80;;;;;;5066794;28;20436;-57
2022/03/21 07:54:02;;;;;;;34.20;16.57;;;4.10;65.30;;;;;;5067846;28;20453;-53
2022/03/21 07:56:29;;;;;;;38.10;16.57;;;4.30;65.30;;;;;;5068501;28;20482;-57
2022/03/21 07:58:59;;;;;;;29.27;17.00;;;4.40;64.80;;;;;;5084529;28;20296;-54
2022/03/21 08:01:26;;;;;;;33.40;17.37;;;4.60;64.00;;;;;;5072529;28;21065;-54
2022/03/21 08:03:53;;;;;;;39.00;17.27;;;4.70;64.30;;;;;;5069181;28;20967;-57
2022/03/21 08:06:19;;;;;;;35.13;17.80;;;4.80;63.90;;;;;;5066147;28;20404;-54
2022/03/21 08:08:44;;;;;;;29.33;17.27;;;5.00;63.50;;;;;;5068237;28;20977;-57
2022/03/21 08:11:10;;;;;;;39.10;18.00;;;5.10;62.80;;;;;;5072726;28;20201;-54
2022/03/21 08:13:37;;;;;;;26.33;15.83;;;5.30;61.40;;;;;;5068308;28;20197;-54
2022/03/21 08:16:04;;;;;;;31.60;17.10;;;5.40;60.60;;;;;;5065996;28;20190;-56
2022/03/21 08:18:29;;;;;;;36.53;17.30;;;5.50;59.60;;;;;;5066853;28;21169;-53
2022/03/21 08:20:55;;;;;;;39.90;17.40;;;5.60;59.00;;;;;;5071932;28;20955;-57
2022/03/21 08:23:21;;;;;;;38.57;18.53;;;5.70;58.80;;;;;;5078778;28;20285;-58
2022/03/21 08:25:47;;;;;;;29.53;17.83;;;5.80;58.60;;;;;;5066831;28;20542;-56
2022/03/21 08:28:14;;;;;;;28.67;16.87;;;6.00;58.30;;;;;;5063355;28;20643;-54
2022/03/21 08:30:40;;;;;;;33.20;16.07;;;6.10;58.00;;;;;;5069102;28;20196;-56
2022/03/21 08:33:10;;;;;;;36.53;16.57;;;6.20;57.00;;;;;;5068457;28;20488;-56
2022/03/21 08:35:38;;;;;;;30.97;14.47;;;6.40;56.00;;;;;;5063746;28;20436;-55
2022/03/21 08:38:07;;;;;;;28.07;15.80;;;6.50;55.20;;;;;;5066966;28;20440;-55
2022/03/21 08:40:33;;;;;;;32.20;15.47;;;6.70;55.00;;;;;;5068467;28;20451;-55
2022/03/21 08:42:59;;;;;;;27.30;15.60;;;6.80;53.60;;;;;;5076210;28;20474;-55
2022/03/21 08:45:24;;;;;;;29.27;15.13;;;6.90;53.00;;;;;;5053076;28;20468;-55
2022/03/21 08:47:51;;;;;;;27.40;15.80;;;7.10;52.80;;;;;;5070806;28;20178;-58
2022/03/21 08:50:17;;;;;;;30.40;15.90;;;7.20;52.40;;;;;;5070033;28;20570;-56
2022/03/21 08:52:44;;;;;;;30.43;16.27;;;7.40;52.70;;;;;;5068325;28;21159;-55
2022/03/21 08:55:10;;;;;;;29.27;15.30;;;7.60;52.20;;;;;;5068616;28;20490;-55
2022/03/21 08:57:35;;;;;;;28.33;16.07;;;7.80;52.10;;;;;;5066735;28;20181;-53
2022/03/21 09:00:05;;;;;;;32.47;15.27;;;7.90;52.00;;;;;;5065173;28;21111;-55
2022/03/21 09:02:31;;;;;;;33.30;15.97;;;8.00;51.60;;;;;;5067717;28;20289;-54
2022/03/21 09:04:58;;;;;;;28.07;15.47;;;8.20;51.70;;;;;;5084191;28;20442;-56
2022/03/21 09:07:24;;;;;;;28.73;15.87;;;8.40;51.20;;;;;;5056274;28;20415;-54
2022/03/21 09:09:49;;;;;;;27.83;15.50;;;8.60;50.40;;;;;;5072402;28;20463;-52
2022/03/21 09:12:15;;;;;;;39.33;16.57;;;8.70;49.50;;;;;;5068788;28;20559;-56
2022/03/21 09:14:41;;;;;;;28.07;16.27;;;8.90;48.40;;;;;;5083755;28;20210;-54
2022/03/21 09:17:07;;;;;;;29.10;15.73;;;9.00;48.10;;;;;;5079235;28;20230;-52
2022/03/21 09:19:33;;;;;;;32.53;17.07;;;9.10;48.00;;;;;;5063123;28;20932;-55
2022/03/21 09:21:59;;;;;;;41.20;19.37;;;9.30;47.80;;;;;;5067953;28;20278;-54
2022/03/21 09:24:25;;;;;;;28.03;16.20;;;9.40;47.30;;;;;;5074335;28;20184;-54
2022/03/21 09:26:51;;;;;;;28.33;15.90;;;9.60;47.00;;;;;;5068717;28;20833;-51
2022/03/21 09:29:17;;;;;;;39.40;16.70;;;9.70;46.90;;;;;;5084621;28;20511;-54
2022/03/21 09:31:43;;;;;;;27.67;16.47;;;9.90;46.20;;;;;;5084337;28;20432;-53
2022/03/21 09:34:13;;;;;;;29.70;16.67;;;10.00;45.60;;;;;;5062077;28;20471;-53
2022/03/21 09:36:39;;;;;;;28.63;15.63;;;10.10;45.00;;;;;;5070523;28;20205;-54
2022/03/21 09:39:06;;;;;;;29.37;14.87;;;10.30;44.80;;;;;;5057596;28;20425;-56
2022/03/21 09:41:32;;;;;;;25.60;14.20;;;10.40;45.10;;;;;;5042987;28;20833;-54
2022/03/21 09:44:09;;;;;;;26.83;15.13;;;10.60;44.70;;;;;;5065821;28;20475;-53
2022/03/21 09:46:38;;;;;;;24.87;15.00;;;10.90;43.70;;;;;;5066163;28;20431;-54
2022/03/21 09:49:05;;;;;;;21.83;13.80;;;11.10;43.20;;;;;;5067523;28;20423;-52
2022/03/21 09:51:31;;;;;;;27.80;15.03;;;11.30;43.00;;;;;;5058884;28;20982;-54
2022/03/21 09:53:59;;;;;;;27.07;14.43;;;11.50;42.30;;;;;;5058786;28;20453;-54
2022/03/21 09:56:26;;;;;;;28.00;14.40;;;11.70;42.50;;;;;;5059883;28;20554;-53
2022/03/21 09:59:01;;;;;;;24.20;14.13;;;11.80;41.90;;;;;;5055972;28;20523;-54
2022/03/21 10:01:29;;;;;;;24.90;13.07;;;12.00;41.10;;;;;;5057838;28;20479;-52
2022/03/21 10:03:55;;;;;;;25.17;13.80;;;12.10;41.70;;;;;;5054536;28;20456;-57
2022/03/21 10:06:32;;;;;;;28.53;15.10;;;12.20;41.40;;;;;;5063639;28;20422;-58
2022/03/21 10:09:18;;;;;;;26.73;14.60;;;12.40;41.30;;;;;;5050349;28;20444;-54
2022/03/21 10:11:53;;;;;;;26.00;14.80;;;12.50;40.90;;;;;;5055387;28;20428;-56
2022/03/21 10:14:23;;;;;;;28.43;14.80;;;12.70;40.80;;;;;;5056970;28;20504;-54
2022/03/21 10:16:55;;;;;;;25.67;15.33;;;12.80;40.80;;;;;;5059768;28;21002;-55
2022/03/21 10:19:21;;;;;;;28.63;13.90;;;12.80;40.30;;;;;;5059516;28;20429;-55
2022/03/21 10:22:02;;;;;;;25.50;12.80;;;12.90;40.30;;;;;;5061121;28;20417;-56
2022/03/21 10:24:32;;;;;;;25.03;14.70;;;13.00;40.20;;;;;;5065665;28;20792;-61
2022/03/21 10:26:58;;;;;;;25.80;14.37;;;13.10;40.00;;;;;;5069204;28;20431;-56
2022/03/21 10:29:24;;;;;;;21.97;13.47;;;13.30;40.30;;;;;;5071893;28;20512;-54
2022/03/21 10:31:52;;;;;;;22.43;13.43;;;13.50;39.90;;;;;;5083406;28;20167;-53
2022/03/21 10:34:23;;;;;;;27.47;14.20;;;13.60;39.80;;;;;;5069886;28;20470;-53
2022/03/21 10:37:07;;;;;;;23.33;13.40;;;13.80;39.20;;;;;;5070549;28;20956;-59
2022/03/21 10:39:40;;;;;;;24.30;13.67;;;13.90;38.90;;;;;;5063750;28;20424;-56
2022/03/21 10:42:09;;;;;;;27.70;14.03;;;14.00;37.40;;;;;;5071458;28;20814;-55
2022/03/21 10:44:36;;;;;;;19.20;12.57;;;14.00;37.20;;;;;;5070936;28;20423;-56
2022/03/21 10:47:07;;;;;;;22.60;12.50;;;14.10;37.60;;;;;;5064858;28;20418;-57
2022/03/21 10:49:34;;;;;;;33.00;12.77;;;14.20;38.10;;;;;;5050658;28;20435;-48
2022/03/21 10:52:01;;;;;;;25.50;13.77;;;14.40;37.40;;;;;;5064646;28;21007;-52
2022/03/21 10:54:40;;;;;;;23.63;11.53;;;14.50;36.80;;;;;;5058679;28;20439;-53
2022/03/21 10:57:24;;;;;;;23.53;11.87;;;14.60;36.60;;;;;;5059861;28;20432;-53
2022/03/21 10:59:49;;;;;;;19.53;11.17;;;14.80;36.60;;;;;;5054893;28;20495;-52
2022/03/21 11:02:19;;;;;;;21.03;11.40;;;15.00;36.30;;;;;;5063622;28;21056;-50
2022/03/21 11:04:45;;;;;;;21.00;10.60;;;15.20;34.60;;;;;;5065099;28;20979;-52
2022/03/21 11:07:14;;;;;;;21.30;11.57;;;15.30;33.10;;;;;;5071617;28;20540;-53
2022/03/21 11:09:42;;;;;;;25.87;11.73;;;15.30;33.80;;;;;;5059902;28;20190;-52
2022/03/21 11:12:10;;;;;;;26.70;11.30;;;15.40;32.80;;;;;;5062033;28;20443;-53
2022/03/21 11:14:40;;;;;;;23.03;11.23;;;15.50;33.70;;;;;;5068716;28;20513;-53
2022/03/21 11:17:07;;;;;;;19.63;10.97;;;15.70;33.70;;;;;;5066517;28;20430;-54
2022/03/21 11:19:34;;;;;;;18.40;10.60;;;15.80;33.40;;;;;;5067867;28;20448;-54
2022/03/21 11:22:00;;;;;;;19.67;10.77;;;15.90;33.60;;;;;;5061126;28;20429;-54
2022/03/21 11:24:28;;;;;;;19.00;11.20;;;16.00;33.70;;;;;;5048207;28;20482;-53
2022/03/21 11:27:14;;;;;;;21.30;11.43;;;16.20;33.20;;;;;;5066859;28;20425;-50
2022/03/21 11:30:17;;;;;;;24.60;11.70;;;16.40;33.10;;;;;;5063167;28;20436;-50
2022/03/21 11:32:46;;;;;;;22.70;11.80;;;16.60;33.00;;;;;;5059344;28;20455;-55
2022/03/21 11:35:15;;;;;;;21.30;11.90;;;16.70;32.70;;;;;;5070876;28;20431;-52
2022/03/21 11:37:42;;;;;;;17.93;11.70;;;16.90;32.30;;;;;;5068990;28;20421;-53
2022/03/21 11:40:26;;;;;;;21.17;11.73;;;17.00;32.30;;;;;;5064923;28;20523;-53
2022/03/21 11:42:53;;;;;;;20.30;11.70;;;17.20;31.80;;;;;;5058664;28;20879;-53
2022/03/21 11:45:25;;;;;;;20.53;10.47;;;17.40;32.00;;;;;;5066493;28;20978;-55
2022/03/21 11:48:17;;;;;;;21.93;12.13;;;17.60;31.30;;;;;;5065770;28;20437;-53
2022/03/21 11:50:44;;;;;;;18.07;9.57;;;17.80;31.20;;;;;;5057500;28;21163;-53
2022/03/21 11:53:10;;;;;;;21.73;8.90;;;18.00;30.00;;;;;;5059057;28;20543;-52
2022/03/21 11:55:41;;;;;;;25.97;11.10;;;18.10;29.40;;;;;;5061316;28;20940;-53
2022/03/21 11:58:21;;;;;;;21.93;9.80;;;18.20;29.20;;;;;;5063485;28;20443;-51
2022/03/21 12:01:06;;;;;;;23.77;8.90;;;18.30;29.20;;;;;;5065794;28;20470;-54
2022/03/21 12:03:32;;;;;;;20.40;9.73;;;18.40;28.80;;;;;;5067624;28;20513;-56
2022/03/21 12:06:18;;;;;;;21.23;9.03;;;18.40;28.10;;;;;;5060784;28;20483;-57
2022/03/21 12:08:49;;;;;;;21.50;9.10;;;18.50;27.70;;;;;;5059142;28;21170;-56
2022/03/21 12:11:46;;;;;;;22.47;9.57;;;18.50;28.60;;;;;;5063499;28;20467;-55
2022/03/21 12:14:25;;;;;;;22.33;9.73;;;18.70;28.60;;;;;;5061729;28;20915;-55
2022/03/21 12:17:02;;;;;;;19.53;10.13;;;18.80;28.40;;;;;;5062923;28;20470;-56
2022/03/21 12:20:02;;;;;;;26.33;10.73;;;18.90;28.50;;;;;;5063146;28;20868;-59
2022/03/21 12:22:33;;;;;;;25.03;9.57;;;19.10;28.70;;;;;;5072569;28;20963;-55
2022/03/21 12:24:59;;;;;;;25.20;10.03;;;19.20;28.40;;;;;;5063070;28;20501;-56
2022/03/21 12:27:34;;;;;;;21.10;8.97;;;19.20;28.30;;;;;;5075378;28;20439;-55
2022/03/21 12:30:19;;;;;;;20.23;9.83;;;19.20;27.80;;;;;;5071214;28;20338;-55
2022/03/21 12:32:55;;;;;;;18.70;9.80;;;19.10;28.00;;;;;;5059000;28;20533;-56
2022/03/21 12:35:39;;;;;;;15.97;9.20;;;19.10;28.30;;;;;;5065273;28;20424;-54
2022/03/21 12:38:06;;;;;;;23.70;9.30;;;19.00;27.90;;;;;;5065011;28;20448;-56
2022/03/21 12:40:52;;;;;;;19.27;8.90;;;19.00;27.90;;;;;;5062660;28;20448;-56
2022/03/21 12:43:49;;;;;;;21.03;7.93;;;19.10;27.90;;;;;;5070595;28;20535;-55
2022/03/21 12:46:18;;;;;;;23.37;8.77;;;19.10;26.80;;;;;;5063430;28;20413;-56
2022/03/21 12:48:53;;;;;;;21.47;8.83;;;19.10;27.40;;;;;;5078624;22;21057;-61
2022/03/21 12:51:35;;;;;;;21.43;8.83;;;19.10;27.70;;;;;;5056954;28;20467;-60
2022/03/21 12:54:05;;;;;;;15.47;7.60;;;19.10;27.50;;;;;;5054206;28;20430;-60
2022/03/21 12:56:32;;;;;;;17.90;8.70;;;19.00;27.10;;;;;;5061141;28;20912;-60
2022/03/21 12:59:06;;;;;;;23.60;8.50;;;19.00;28.30;;;;;;5059291;28;20511;-61
2022/03/21 13:01:33;;;;;;;25.80;8.50;;;19.10;28.30;;;;;;5054861;28;20424;-61